createdAt,value
2023-05-03T00:01:14.819Z,6.43
2023-05-03T00:04:20.206Z,6.55
2023-05-03T00:07:22.713Z,6.55
2023-05-03T00:10:25.029Z,6.50
2023-05-03T00:13:26.659Z,6.15
2023-05-03T00:16:28.394Z,5.78
2023-05-03T00:19:33.683Z,6.45
2023-05-03T00:22:36.453Z,5.95
2023-05-03T00:25:38.247Z,6.45
2023-05-03T00:28:39.905Z,7.32
2023-05-03T00:31:44.546Z,5.65
2023-05-03T00:34:46.333Z,7.30
2023-05-03T00:37:47.939Z,6.20
2023-05-03T00:40:55.824Z,7.22
2023-05-03T00:43:57.462Z,7.22
2023-05-03T00:46:59.369Z,7.55
2023-05-03T00:50:01.708Z,7.43
2023-05-03T00:53:03.882Z,7.47
2023-05-03T00:56:06.839Z,7.22
2023-05-03T00:59:08.557Z,7.65
2023-05-03T01:02:10.566Z,7.82
2023-05-03T01:05:12.449Z,8.68
2023-05-03T01:09:00.713Z,7.47
2023-05-03T01:12:11.725Z,7.53
2023-05-03T01:15:25.642Z,7.90
2023-05-03T01:18:34.180Z,8.02
2023-05-03T01:21:37.202Z,7.32
2023-05-03T01:24:41.771Z,7.45
2023-05-03T01:27:43.325Z,7.55
2023-05-03T01:30:45.757Z,8.55
2023-05-03T01:34:03.236Z,7.40
2023-05-03T01:37:04.983Z,7.47
2023-05-03T01:40:09.835Z,7.80
2023-05-03T01:43:13.363Z,7.00
2023-05-03T01:46:15.683Z,7.60
2023-05-03T01:49:17.485Z,8.52
2023-05-03T01:52:19.124Z,7.00
2023-05-03T01:55:20.811Z,7.80
2023-05-03T01:58:22.472Z,7.78
2023-05-03T02:01:24.302Z,7.65
2023-05-03T02:04:26.019Z,7.38
2023-05-03T02:07:27.583Z,6.30
2023-05-03T02:10:29.171Z,7.93
2023-05-03T02:13:31.035Z,7.85
2023-05-03T02:16:32.703Z,6.97
2023-05-03T02:19:34.721Z,7.30
2023-05-03T02:22:36.727Z,6.63
2023-05-03T02:25:38.312Z,6.97
2023-05-03T02:28:39.838Z,6.88
2023-05-03T02:31:41.446Z,7.25
2023-05-03T02:34:44.897Z,6.40
2023-05-03T02:37:46.549Z,7.05
2023-05-03T02:40:48.098Z,6.82
2023-05-03T02:43:49.636Z,6.22
2023-05-03T02:46:51.395Z,6.38
2023-05-03T02:49:52.920Z,7.20
2023-05-03T02:52:54.455Z,6.90
2023-05-03T02:55:56.042Z,7.53
2023-05-03T02:58:57.627Z,6.97
2023-05-03T03:01:59.281Z,7.18
2023-05-03T03:05:00.947Z,7.38
2023-05-03T03:08:02.648Z,7.55
2023-05-03T03:11:05.430Z,7.57
2023-05-03T03:14:07.014Z,7.53
2023-05-03T03:17:09.249Z,7.03
2023-05-03T03:20:12.605Z,6.82
2023-05-03T03:23:14.381Z,6.97
2023-05-03T03:26:15.984Z,7.28
2023-05-03T03:29:17.549Z,6.55
2023-05-03T03:32:19.110Z,7.35
2023-05-03T03:35:21.413Z,7.25
2023-05-03T03:38:23.005Z,6.93
2023-05-03T03:41:24.710Z,6.75
2023-05-03T03:44:26.314Z,7.70
2023-05-03T03:47:27.927Z,7.22
2023-05-03T03:50:29.586Z,7.53
2023-05-03T03:53:31.196Z,7.10
2023-05-03T03:56:32.730Z,8.00
2023-05-03T03:59:34.312Z,7.85
2023-05-03T04:02:36.156Z,7.00
2023-05-03T04:05:37.824Z,8.18
2023-05-03T04:08:39.400Z,8.25
2023-05-03T04:11:40.992Z,8.63
2023-05-03T04:14:42.562Z,8.90
2023-05-03T04:17:44.196Z,8.98
2023-05-03T04:20:45.912Z,8.82
2023-05-03T04:23:47.555Z,7.95
2023-05-03T04:26:51.208Z,8.63
2023-05-03T04:29:53.146Z,7.55
2023-05-03T04:32:55.318Z,8.00
2023-05-03T04:35:57.881Z,8.05
2023-05-03T04:38:59.452Z,8.82
2023-05-03T04:42:02.027Z,8.15
2023-05-03T04:45:06.590Z,8.57
2023-05-03T04:48:09.200Z,8.57
2023-05-03T04:51:10.835Z,9.07
2023-05-03T04:54:12.387Z,8.80
2023-05-03T04:57:13.992Z,9.18
2023-05-03T05:00:16.353Z,9.00
2023-05-03T05:03:17.990Z,9.95
2023-05-03T05:06:19.928Z,9.23
2023-05-03T05:09:23.939Z,9.02
2023-05-03T05:12:25.796Z,8.07
2023-05-03T05:15:27.365Z,10.27
2023-05-03T05:18:28.994Z,10.43
2023-05-03T05:21:31.359Z,10.43
2023-05-03T05:24:32.924Z,10.95
2023-05-03T05:27:35.233Z,11.10
2023-05-03T05:30:36.828Z,11.98
2023-05-03T05:33:38.391Z,10.05
2023-05-03T05:36:40.508Z,10.98
2023-05-03T05:39:42.073Z,10.70
2023-05-03T05:42:46.046Z,11.82
2023-05-03T05:45:47.752Z,11.48
2023-05-03T05:48:51.104Z,10.50
2023-05-03T05:51:52.706Z,10.23
2023-05-03T05:54:54.276Z,11.13
2023-05-03T05:57:55.876Z,11.10
2023-05-03T06:01:03.705Z,9.75
2023-05-03T06:04:05.289Z,10.13
2023-05-03T06:07:06.814Z,10.45
2023-05-03T06:10:08.773Z,10.00
2023-05-03T06:13:10.446Z,10.32
2023-05-03T06:16:12.046Z,10.35
2023-05-03T06:19:13.891Z,11.23
2023-05-03T06:22:15.892Z,11.35
2023-05-03T06:25:18.259Z,11.57
2023-05-03T06:28:20.485Z,11.55
2023-05-03T06:31:22.585Z,10.88
2023-05-03T06:34:25.316Z,11.57
2023-05-03T06:37:26.919Z,11.70
2023-05-03T06:40:28.597Z,10.95
2023-05-03T06:43:30.248Z,10.13
2023-05-03T06:46:31.836Z,9.07
2023-05-03T06:49:33.728Z,10.35
2023-05-03T06:52:35.771Z,11.00
2023-05-03T06:55:37.289Z,10.70
2023-05-03T06:58:38.842Z,10.07
2023-05-03T07:01:40.482Z,11.50
2023-05-03T07:04:42.133Z,9.30
2023-05-03T07:07:43.720Z,9.80
2023-05-03T07:10:45.389Z,9.00
2023-05-03T07:13:46.942Z,8.40
2023-05-03T07:16:48.628Z,9.75
2023-05-03T07:19:51.696Z,9.02
2023-05-03T07:22:53.236Z,8.15
2023-05-03T07:25:55.472Z,8.15
2023-05-03T07:28:57.021Z,8.10
2023-05-03T07:31:59.058Z,7.35
2023-05-03T07:35:00.727Z,7.28
2023-05-03T07:38:02.274Z,6.75
2023-05-03T07:41:03.902Z,8.40
2023-05-03T07:44:05.536Z,8.05
2023-05-03T07:47:07.112Z,6.70
2023-05-03T07:50:09.364Z,7.32
2023-05-03T07:53:12.082Z,7.50
2023-05-03T07:56:13.640Z,7.28
2023-05-03T07:59:15.185Z,6.45
2023-05-03T08:02:16.857Z,7.35
2023-05-03T08:05:18.718Z,7.10
2023-05-03T08:08:20.477Z,6.63
2023-05-03T08:11:22.121Z,4.63
2023-05-03T08:14:23.963Z,4.63
2023-05-03T08:17:26.389Z,5.80
2023-05-03T08:20:28.360Z,5.50
2023-05-03T08:23:29.990Z,5.75
2023-05-03T08:26:33.042Z,5.50
2023-05-03T08:29:37.153Z,5.38
2023-05-03T08:32:39.108Z,5.85
2023-05-03T08:35:40.804Z,5.95
2023-05-03T08:38:42.464Z,6.20
2023-05-03T08:41:44.414Z,5.68
2023-05-03T08:44:48.345Z,6.90
2023-05-03T08:47:54.406Z,6.45
2023-05-03T08:50:57.869Z,7.50
2023-05-03T08:53:59.664Z,6.97
2023-05-03T08:57:01.462Z,6.55
2023-05-03T09:00:10.569Z,6.03
2023-05-03T09:03:12.705Z,8.38
2023-05-03T09:06:22.720Z,6.20
2023-05-03T09:09:32.220Z,5.80
2023-05-03T09:12:40.992Z,5.88
2023-05-03T09:15:45.132Z,6.05
2023-05-03T09:18:57.480Z,6.53
2023-05-03T09:22:06.531Z,5.95
2023-05-03T09:25:09.272Z,6.40
2023-05-03T09:28:10.953Z,6.65
2023-05-03T09:31:13.433Z,6.15
2023-05-03T09:34:22.652Z,5.82
2023-05-03T09:37:36.750Z,7.15
2023-05-03T09:40:48.017Z,6.47
2023-05-03T09:43:52.085Z,6.45
2023-05-03T09:47:12.265Z,6.55
2023-05-03T09:50:13.904Z,6.70
2023-05-03T09:53:18.613Z,6.45
2023-05-03T09:56:22.612Z,6.38
2023-05-03T09:59:24.333Z,6.28
2023-05-03T10:02:26.926Z,5.90
2023-05-03T10:05:32.895Z,6.00
2023-05-03T10:08:42.273Z,5.13
2023-05-03T10:11:48.801Z,5.80
2023-05-03T10:14:53.591Z,6.20
2023-05-03T10:17:59.515Z,6.10
2023-05-03T10:21:12.416Z,5.28
2023-05-03T10:24:16.117Z,5.25
2023-05-03T10:27:17.920Z,5.45
2023-05-03T10:30:26.087Z,5.75
2023-05-03T10:33:37.370Z,4.97
2023-05-03T10:36:49.527Z,5.13
2023-05-03T10:39:53.102Z,4.50
2023-05-03T10:42:56.273Z,5.50
2023-05-03T10:46:02.168Z,5.68
2023-05-03T10:49:20.893Z,5.68
2023-05-03T10:52:38.158Z,5.65
2023-05-03T10:55:39.847Z,5.63
2023-05-03T10:58:50.592Z,4.65
2023-05-03T11:01:53.140Z,5.07
2023-05-03T11:04:59.801Z,4.88
2023-05-03T11:08:22.443Z,5.10
2023-05-03T11:11:24.074Z,5.47
2023-05-03T11:14:25.687Z,5.57
2023-05-03T11:17:29.147Z,5.20
2023-05-03T11:20:31.069Z,4.90
2023-05-03T11:23:32.608Z,5.05
2023-05-03T11:26:40.396Z,4.63
2023-05-03T11:29:47.986Z,4.88
2023-05-03T11:32:49.840Z,5.03
2023-05-03T11:35:56.134Z,5.68
2023-05-03T11:38:57.710Z,5.43
2023-05-03T11:42:05.577Z,5.35
2023-05-03T11:45:08.347Z,5.45
2023-05-03T11:48:11.703Z,5.40
2023-05-03T11:51:14.345Z,5.80
2023-05-03T11:54:25.420Z,5.65
2023-05-03T11:57:28.183Z,5.25
2023-05-03T12:00:30.708Z,4.97
2023-05-03T12:03:33.617Z,4.80
2023-05-03T12:06:38.124Z,5.38
2023-05-03T12:09:41.308Z,5.30
2023-05-03T12:12:57.403Z,5.72
2023-05-03T12:16:11.098Z,5.60
2023-05-03T12:19:25.636Z,6.03
2023-05-03T12:25:34.087Z,5.65
2023-05-03T12:28:36.616Z,5.68
2023-05-03T12:31:39.583Z,6.25
2023-05-03T12:34:42.298Z,5.22
2023-05-03T12:37:44.436Z,6.07
2023-05-03T12:40:47.133Z,5.15
2023-05-03T12:43:52.235Z,5.45
2023-05-03T12:46:54.418Z,4.30
2023-05-03T12:49:59.672Z,4.90
2023-05-03T12:53:02.518Z,5.07
2023-05-03T12:56:06.787Z,5.32
2023-05-03T12:59:39.244Z,4.65
2023-05-03T13:05:36.506Z,5.07
2023-05-03T13:08:44.360Z,5.13
2023-05-03T13:11:52.193Z,5.07
2023-05-03T13:14:57.036Z,5.28
2023-05-03T13:18:01.607Z,4.30
2023-05-03T13:21:03.261Z,5.15
2023-05-03T13:24:14.027Z,4.25
2023-05-03T13:27:18.158Z,5.00
2023-05-03T13:30:21.754Z,4.53
2023-05-03T13:33:23.869Z,4.35
2023-05-03T13:36:26.928Z,4.78
2023-05-03T13:39:28.530Z,5.15
2023-05-03T13:42:30.553Z,5.22
2023-05-03T13:45:32.198Z,4.72
2023-05-03T13:48:34.114Z,4.90
2023-05-03T13:51:36.073Z,4.55
2023-05-03T13:54:37.636Z,5.30
2023-05-03T13:57:39.274Z,5.15
2023-05-03T14:00:41.000Z,5.70
2023-05-03T14:03:42.657Z,5.57
2023-05-03T14:06:44.294Z,5.50
2023-05-03T14:09:46.024Z,4.90
2023-05-03T14:12:47.694Z,4.95
2023-05-03T14:15:49.485Z,4.97
2023-05-03T14:18:52.652Z,5.13
2023-05-03T14:21:59.631Z,5.15
2023-05-03T14:25:02.014Z,5.57
2023-05-03T14:28:05.105Z,6.00
2023-05-03T14:31:07.733Z,5.70
2023-05-03T14:34:09.333Z,5.63
2023-05-03T14:37:10.919Z,5.82
2023-05-03T14:40:12.867Z,5.40
2023-05-03T14:43:15.515Z,5.65
2023-05-03T14:46:17.141Z,6.68
2023-05-03T14:49:19.513Z,6.20
2023-05-03T14:52:21.154Z,6.60
2023-05-03T14:55:22.908Z,6.18
2023-05-03T14:58:24.567Z,6.00
2023-05-03T15:01:26.753Z,5.53
2023-05-03T15:04:29.010Z,5.55
2023-05-03T15:07:31.745Z,5.22
2023-05-03T15:10:34.645Z,6.03
2023-05-03T15:13:36.360Z,5.80
2023-05-03T15:16:38.638Z,6.03
2023-05-03T15:19:40.781Z,6.07
2023-05-03T15:22:42.430Z,5.78
2023-05-03T15:25:44.065Z,6.28
2023-05-03T15:28:45.878Z,6.55
2023-05-03T15:31:47.724Z,5.57
2023-05-03T15:34:49.486Z,6.50
2023-05-03T15:37:51.367Z,7.03
2023-05-03T15:40:52.968Z,6.45
2023-05-03T15:43:55.338Z,7.68
2023-05-03T15:46:57.084Z,7.82
2023-05-03T15:49:58.809Z,7.40
2023-05-03T15:53:00.466Z,6.75
2023-05-03T15:56:02.346Z,7.35
2023-05-03T15:59:04.254Z,8.57
2023-05-03T16:02:07.231Z,7.13
2023-05-03T16:05:09.605Z,6.65
2023-05-03T16:08:12.053Z,6.82
2023-05-03T16:11:13.684Z,7.13
2023-05-03T16:14:15.277Z,7.10
2023-05-03T16:17:17.093Z,7.78
2023-05-03T16:20:19.055Z,7.40
2023-05-03T16:23:20.772Z,7.35
2023-05-03T16:26:23.810Z,7.20
2023-05-03T16:29:25.667Z,7.45
2023-05-03T16:32:27.414Z,7.15
2023-05-03T16:35:29.146Z,7.45
2023-05-03T16:38:32.002Z,7.25
2023-05-03T16:41:36.550Z,7.40
2023-05-03T16:44:38.414Z,7.32
2023-05-03T16:47:40.139Z,6.78
2023-05-03T16:50:43.028Z,6.55
2023-05-03T16:53:44.632Z,7.10
2023-05-03T16:56:46.350Z,7.95
2023-05-03T16:59:47.951Z,8.00
2023-05-03T17:02:49.619Z,7.35
2023-05-03T17:05:51.425Z,6.90
2023-05-03T17:08:53.003Z,7.60
2023-05-03T17:11:55.249Z,7.20
2023-05-03T17:14:56.869Z,6.90
2023-05-03T17:17:58.819Z,7.07
2023-05-03T17:21:01.770Z,7.05
2023-05-03T17:24:03.507Z,6.60
2023-05-03T17:27:08.270Z,7.45
2023-05-03T17:30:10.596Z,7.35
2023-05-03T17:33:12.295Z,6.68
2023-05-03T17:36:14.062Z,7.03
2023-05-03T17:39:15.701Z,7.13
2023-05-03T17:42:17.593Z,6.57
2023-05-03T17:45:20.340Z,6.43
2023-05-03T17:48:21.894Z,6.35
2023-05-03T17:51:23.563Z,6.15
2023-05-03T17:54:27.782Z,6.30
2023-05-03T17:57:30.818Z,6.15
2023-05-03T18:00:32.975Z,6.20
2023-05-03T18:03:36.454Z,5.90
2023-05-03T18:06:38.108Z,6.20
2023-05-03T18:09:39.731Z,5.95
2023-05-03T18:12:42.151Z,6.82
2023-05-03T18:15:43.846Z,6.50
2023-05-03T18:18:45.443Z,6.78
2023-05-03T18:21:47.745Z,6.70
2023-05-03T18:24:55.411Z,6.80
2023-05-03T18:27:57.410Z,6.40
2023-05-03T18:30:59.263Z,6.07
2023-05-03T18:34:00.821Z,6.40
2023-05-03T18:37:02.584Z,6.70
2023-05-03T18:40:04.506Z,6.88
2023-05-03T18:43:06.274Z,6.05
2023-05-03T18:46:08.292Z,5.85
2023-05-03T18:49:10.081Z,6.32
2023-05-03T18:52:11.669Z,6.45
2023-05-03T18:55:13.220Z,7.13
2023-05-03T18:58:15.535Z,7.38
2023-05-03T19:01:17.363Z,7.47
2023-05-03T19:04:19.084Z,7.22
2023-05-03T19:07:21.198Z,7.47
2023-05-03T19:10:24.318Z,7.68
2023-05-03T19:13:25.908Z,7.90
2023-05-03T19:16:27.822Z,8.27
2023-05-03T19:19:29.812Z,8.30
2023-05-03T19:22:31.462Z,7.60
2023-05-03T19:25:33.073Z,8.65
2023-05-03T19:28:34.829Z,7.47
2023-05-03T19:31:36.495Z,7.80
2023-05-03T19:34:38.164Z,8.18
2023-05-03T19:37:40.192Z,8.23
2023-05-03T19:40:42.202Z,7.03
2023-05-03T19:43:43.878Z,7.45
2023-05-03T19:46:45.559Z,8.57
2023-05-03T19:49:47.570Z,7.82
2023-05-03T19:52:55.257Z,8.02
2023-05-03T19:55:58.116Z,8.02
2023-05-03T19:58:59.853Z,7.70
2023-05-03T20:02:01.632Z,8.45
2023-05-03T20:05:04.921Z,8.90
2023-05-03T20:08:06.747Z,7.78
2023-05-03T20:11:08.550Z,8.20
2023-05-03T20:14:10.439Z,8.35
2023-05-03T20:17:12.074Z,9.27
2023-05-03T20:20:14.625Z,8.70
2023-05-03T20:23:17.076Z,8.50
2023-05-03T20:26:19.075Z,8.23
2023-05-03T20:29:20.803Z,8.40
2023-05-03T20:32:22.405Z,8.80
2023-05-03T20:35:24.119Z,7.82
2023-05-03T20:38:25.690Z,8.32
2023-05-03T20:41:27.454Z,8.75
2023-05-03T20:44:29.105Z,8.43
2023-05-03T20:47:30.843Z,8.05
2023-05-03T20:50:32.460Z,8.48
2023-05-03T20:53:34.208Z,8.35
2023-05-03T20:56:35.808Z,8.75
2023-05-03T20:59:37.358Z,8.70
2023-05-03T21:02:39.239Z,9.30
2023-05-03T21:05:40.931Z,8.65
2023-05-03T21:08:42.484Z,8.73
2023-05-03T21:11:44.187Z,8.55
2023-05-03T21:14:45.859Z,8.77
2023-05-03T21:17:47.471Z,8.35
2023-05-03T21:20:49.120Z,8.98
2023-05-03T21:24:20.716Z,8.60
2023-05-03T21:27:22.314Z,8.45
2023-05-03T21:30:24.070Z,8.85
2023-05-03T21:33:25.932Z,8.13
2023-05-03T21:36:27.782Z,8.50
2023-05-03T21:39:29.599Z,8.07
2023-05-03T21:42:31.343Z,8.75
2023-05-03T21:45:32.901Z,9.00
2023-05-03T21:48:36.393Z,9.43
2023-05-03T21:51:39.672Z,9.27
2023-05-03T21:54:41.267Z,8.75
2023-05-03T21:57:43.289Z,8.02
2023-05-03T22:00:44.896Z,8.15
2023-05-03T22:03:46.609Z,8.63
2023-05-03T22:06:48.394Z,9.00
2023-05-03T22:09:50.574Z,8.95
2023-05-03T22:12:52.262Z,8.70
2023-05-03T22:15:54.070Z,8.45
2023-05-03T22:18:55.818Z,9.23
2023-05-03T22:22:00.610Z,9.35
2023-05-03T22:25:02.732Z,8.80
2023-05-03T22:28:04.301Z,8.73
2023-05-03T22:31:07.330Z,8.27
2023-05-03T22:34:08.990Z,9.18
2023-05-03T22:37:11.298Z,8.90
2023-05-03T22:40:13.527Z,9.15
2023-05-03T22:43:15.121Z,8.93
2023-05-03T22:46:16.817Z,9.02
2023-05-03T22:49:18.694Z,9.13
2023-05-03T22:52:20.273Z,8.75
2023-05-03T22:55:21.857Z,8.63
2023-05-03T22:58:24.282Z,8.23
2023-05-03T23:01:26.869Z,8.52
2023-05-03T23:04:31.671Z,9.00
2023-05-03T23:07:33.297Z,8.32
2023-05-03T23:10:34.914Z,9.30
2023-05-03T23:13:36.909Z,7.97
2023-05-03T23:16:38.794Z,7.40
2023-05-03T23:19:40.357Z,8.18
2023-05-03T23:22:42.318Z,7.95
2023-05-03T23:25:43.881Z,7.40
2023-05-03T23:28:46.194Z,7.72
2023-05-03T23:31:48.297Z,8.10
2023-05-03T23:34:50.320Z,7.97
2023-05-03T23:37:51.961Z,7.30
2023-05-03T23:40:53.574Z,7.63
2023-05-03T23:43:55.123Z,7.90
2023-05-03T23:46:56.666Z,7.32
2023-05-03T23:49:58.664Z,7.68
2023-05-03T23:53:01.513Z,7.43
2023-05-03T23:56:03.432Z,7.15
2023-05-03T23:59:05.716Z,7.45
